sensor_id;sensor_type;location;lat;lon;timestamp;temperature;humidity
17172;DHT22;8701;50.150;8.756;2022-12-29T00:01:59;10.60;99.90
17172;DHT22;8701;50.150;8.756;2022-12-29T00:06:01;10.70;99.90
17172;DHT22;8701;50.150;8.756;2022-12-29T00:10:07;10.90;99.90
17172;DHT22;8701;50.150;8.756;2022-12-29T00:14:10;10.60;99.90
17172;DHT22;8701;50.150;8.756;2022-12-29T00:18:31;10.70;99.90
17172;DHT22;8701;50.150;8.756;2022-12-29T00:22:38;10.70;99.90
17172;DHT22;8701;50.150;8.756;2022-12-29T00:27:10;10.70;99.90
17172;DHT22;8701;50.150;8.756;2022-12-29T00:31:33;10.60;99.90
17172;DHT22;8701;50.150;8.756;2022-12-29T00:35:55;10.60;99.90
17172;DHT22;8701;50.150;8.756;2022-12-29T00:40:00;10.50;99.90
17172;DHT22;8701;50.150;8.756;2022-12-29T00:44:21;10.40;99.90
17172;DHT22;8701;50.150;8.756;2022-12-29T00:48:23;10.40;99.90
17172;DHT22;8701;50.150;8.756;2022-12-29T00:52:39;10.30;99.90
17172;DHT22;8701;50.150;8.756;2022-12-29T00:56:48;10.40;99.90
17172;DHT22;8701;50.150;8.756;2022-12-29T01:01:03;10.40;99.90
17172;DHT22;8701;50.150;8.756;2022-12-29T01:05:05;10.40;99.90
17172;DHT22;8701;50.150;8.756;2022-12-29T01:14:19;10.20;99.90
17172;DHT22;8701;50.150;8.756;2022-12-29T01:18:30;10.20;99.90
17172;DHT22;8701;50.150;8.756;2022-12-29T01:22:33;10.20;99.90
17172;DHT22;8701;50.150;8.756;2022-12-29T01:26:35;10.30;99.90
17172;DHT22;8701;50.150;8.756;2022-12-29T01:30:52;10.50;99.90
17172;DHT22;8701;50.150;8.756;2022-12-29T01:35:03;10.40;99.90
17172;DHT22;8701;50.150;8.756;2022-12-29T01:39:08;10.40;99.90
17172;DHT22;8701;50.150;8.756;2022-12-29T01:43:14;10.40;99.90
17172;DHT22;8701;50.150;8.756;2022-12-29T01:47:29;10.40;99.90
17172;DHT22;8701;50.150;8.756;2022-12-29T01:52:12;10.50;99.90
17172;DHT22;8701;50.150;8.756;2022-12-29T01:56:22;10.50;99.90
17172;DHT22;8701;50.150;8.756;2022-12-29T02:00:39;10.50;99.90
17172;DHT22;8701;50.150;8.756;2022-12-29T02:05:01;10.60;99.90
17172;DHT22;8701;50.150;8.756;2022-12-29T02:14:09;10.50;99.90
17172;DHT22;8701;50.150;8.756;2022-12-29T02:18:28;10.60;99.90
17172;DHT22;8701;50.150;8.756;2022-12-29T02:22:52;10.60;99.90
17172;DHT22;8701;50.150;8.756;2022-12-29T02:27:55;10.50;99.90
17172;DHT22;8701;50.150;8.756;2022-12-29T02:32:25;10.70;99.90
17172;DHT22;8701;50.150;8.756;2022-12-29T02:36:40;10.70;99.90
17172;DHT22;8701;50.150;8.756;2022-12-29T02:41:24;10.70;99.90
17172;DHT22;8701;50.150;8.756;2022-12-29T02:45:38;10.70;99.90
17172;DHT22;8701;50.150;8.756;2022-12-29T02:50:15;10.70;99.90
17172;DHT22;8701;50.150;8.756;2022-12-29T02:54:33;10.70;99.90
17172;DHT22;8701;50.150;8.756;2022-12-29T02:58:53;10.50;99.90
17172;DHT22;8701;50.150;8.756;2022-12-29T03:03:16;10.60;99.90
17172;DHT22;8701;50.150;8.756;2022-12-29T03:07:51;10.50;99.90
17172;DHT22;8701;50.150;8.756;2022-12-29T03:12:47;10.70;99.90
17172;DHT22;8701;50.150;8.756;2022-12-29T03:17:19;10.70;99.90
17172;DHT22;8701;50.150;8.756;2022-12-29T03:21:42;10.80;99.90
17172;DHT22;8701;50.150;8.756;2022-12-29T03:26:10;10.80;99.90
17172;DHT22;8701;50.150;8.756;2022-12-29T03:30:23;10.80;99.90
17172;DHT22;8701;50.150;8.756;2022-12-29T03:34:26;10.70;99.90
17172;DHT22;8701;50.150;8.756;2022-12-29T03:38:42;10.80;99.90
17172;DHT22;8701;50.150;8.756;2022-12-29T03:43:01;10.60;99.90
17172;DHT22;8701;50.150;8.756;2022-12-29T03:47:25;10.70;99.90
17172;DHT22;8701;50.150;8.756;2022-12-29T03:51:34;10.80;99.90
17172;DHT22;8701;50.150;8.756;2022-12-29T03:55:40;10.80;99.90
17172;DHT22;8701;50.150;8.756;2022-12-29T03:59:44;10.90;99.90
17172;DHT22;8701;50.150;8.756;2022-12-29T04:03:50;11.00;99.90
17172;DHT22;8701;50.150;8.756;2022-12-29T04:07:52;11.00;99.90
17172;DHT22;8701;50.150;8.756;2022-12-29T04:11:55;11.10;99.90
17172;DHT22;8701;50.150;8.756;2022-12-29T04:16:17;11.20;99.90
17172;DHT22;8701;50.150;8.756;2022-12-29T04:20:19;11.10;99.90
17172;DHT22;8701;50.150;8.756;2022-12-29T04:24:51;11.20;99.90
17172;DHT22;8701;50.150;8.756;2022-12-29T04:28:57;11.20;99.90
17172;DHT22;8701;50.150;8.756;2022-12-29T04:33:54;11.20;99.90
17172;DHT22;8701;50.150;8.756;2022-12-29T04:38:16;11.30;99.90
17172;DHT22;8701;50.150;8.756;2022-12-29T04:42:47;11.30;99.90
17172;DHT22;8701;50.150;8.756;2022-12-29T04:47:24;11.40;99.90
17172;DHT22;8701;50.150;8.756;2022-12-29T04:51:56;11.50;99.90
17172;DHT22;8701;50.150;8.756;2022-12-29T04:56:02;11.40;99.90
17172;DHT22;8701;50.150;8.756;2022-12-29T05:00:11;11.40;99.90
17172;DHT22;8701;50.150;8.756;2022-12-29T05:04:25;11.50;99.90
17172;DHT22;8701;50.150;8.756;2022-12-29T05:08:44;11.60;99.90
17172;DHT22;8701;50.150;8.756;2022-12-29T05:12:50;11.60;99.90
17172;DHT22;8701;50.150;8.756;2022-12-29T05:17:10;11.70;99.90
17172;DHT22;8701;50.150;8.756;2022-12-29T05:21:39;11.70;99.90
17172;DHT22;8701;50.150;8.756;2022-12-29T05:26:09;11.60;99.90
17172;DHT22;8701;50.150;8.756;2022-12-29T05:30:56;11.60;99.90
17172;DHT22;8701;50.150;8.756;2022-12-29T05:35:10;11.70;99.90
17172;DHT22;8701;50.150;8.756;2022-12-29T05:39:13;11.60;99.90
17172;DHT22;8701;50.150;8.756;2022-12-29T05:43:19;11.50;99.90
17172;DHT22;8701;50.150;8.756;2022-12-29T05:47:40;11.50;99.90
17172;DHT22;8701;50.150;8.756;2022-12-29T05:51:50;11.50;99.90
17172;DHT22;8701;50.150;8.756;2022-12-29T05:55:52;11.60;99.90
17172;DHT22;8701;50.150;8.756;2022-12-29T06:00:13;11.70;99.90
17172;DHT22;8701;50.150;8.756;2022-12-29T06:04:23;11.70;99.90
17172;DHT22;8701;50.150;8.756;2022-12-29T06:08:25;11.70;99.90
17172;DHT22;8701;50.150;8.756;2022-12-29T06:12:28;11.70;99.90
17172;DHT22;8701;50.150;8.756;2022-12-29T06:16:32;11.70;99.90
17172;DHT22;8701;50.150;8.756;2022-12-29T06:20:41;11.80;99.90
17172;DHT22;8701;50.150;8.756;2022-12-29T06:24:47;11.80;99.90
17172;DHT22;8701;50.150;8.756;2022-12-29T06:28:58;11.90;99.90
17172;DHT22;8701;50.150;8.756;2022-12-29T06:37:39;11.90;99.90
17172;DHT22;8701;50.150;8.756;2022-12-29T06:41:45;11.90;99.90
17172;DHT22;8701;50.150;8.756;2022-12-29T06:46:10;12.00;99.90
17172;DHT22;8701;50.150;8.756;2022-12-29T06:50:14;12.00;99.90
17172;DHT22;8701;50.150;8.756;2022-12-29T06:54:36;12.00;99.90
17172;DHT22;8701;50.150;8.756;2022-12-29T06:58:39;12.00;99.90
17172;DHT22;8701;50.150;8.756;2022-12-29T07:02:47;12.00;99.90
17172;DHT22;8701;50.150;8.756;2022-12-29T07:06:54;12.00;99.90
17172;DHT22;8701;50.150;8.756;2022-12-29T07:11:00;11.90;99.90
17172;DHT22;8701;50.150;8.756;2022-12-29T07:15:08;11.80;99.90
17172;DHT22;8701;50.150;8.756;2022-12-29T07:19:17;11.80;99.90
17172;DHT22;8701;50.150;8.756;2022-12-29T07:23:23;11.80;99.90
17172;DHT22;8701;50.150;8.756;2022-12-29T07:27:35;11.80;99.90
17172;DHT22;8701;50.150;8.756;2022-12-29T07:32:41;11.80;99.90
17172;DHT22;8701;50.150;8.756;2022-12-29T07:37:12;11.70;99.90
17172;DHT22;8701;50.150;8.756;2022-12-29T07:41:52;11.80;99.90
17172;DHT22;8701;50.150;8.756;2022-12-29T07:51:20;11.90;99.90
17172;DHT22;8701;50.150;8.756;2022-12-29T07:55:48;12.00;99.90
17172;DHT22;8701;50.150;8.756;2022-12-29T08:00:44;11.90;99.90
17172;DHT22;8701;50.150;8.756;2022-12-29T08:15:47;12.00;99.90
17172;DHT22;8701;50.150;8.756;2022-12-29T08:20:19;12.10;99.90
17172;DHT22;8701;50.150;8.756;2022-12-29T08:24:53;12.10;99.90
17172;DHT22;8701;50.150;8.756;2022-12-29T08:29:21;12.10;99.90
17172;DHT22;8701;50.150;8.756;2022-12-29T08:34:05;12.00;99.90
17172;DHT22;8701;50.150;8.756;2022-12-29T08:38:39;12.00;99.90
17172;DHT22;8701;50.150;8.756;2022-12-29T08:42:45;11.90;99.90
17172;DHT22;8701;50.150;8.756;2022-12-29T08:46:58;12.00;99.90
17172;DHT22;8701;50.150;8.756;2022-12-29T08:51:08;11.90;99.90
17172;DHT22;8701;50.150;8.756;2022-12-29T08:55:35;11.80;99.90
17172;DHT22;8701;50.150;8.756;2022-12-29T09:00:21;12.00;99.90
17172;DHT22;8701;50.150;8.756;2022-12-29T09:16:30;11.80;99.90
17172;DHT22;8701;50.150;8.756;2022-12-29T09:43:01;11.40;99.90
17172;DHT22;8701;50.150;8.756;2022-12-29T09:47:09;11.40;99.90
17172;DHT22;8701;50.150;8.756;2022-12-29T09:51:16;11.30;99.90
17172;DHT22;8701;50.150;8.756;2022-12-29T09:59:40;11.10;99.90
17172;DHT22;8701;50.150;8.756;2022-12-29T10:03:47;11.00;99.90
17172;DHT22;8701;50.150;8.756;2022-12-29T10:07:55;11.00;99.90
17172;DHT22;8701;50.150;8.756;2022-12-29T10:12:10;11.00;99.90
17172;DHT22;8701;50.150;8.756;2022-12-29T10:16:19;11.00;99.90
17172;DHT22;8701;50.150;8.756;2022-12-29T10:20:28;11.00;99.90
17172;DHT22;8701;50.150;8.756;2022-12-29T10:24:34;11.00;99.90
17172;DHT22;8701;50.150;8.756;2022-12-29T10:28:42;11.00;99.90
17172;DHT22;8701;50.150;8.756;2022-12-29T10:32:47;10.90;99.90
17172;DHT22;8701;50.150;8.756;2022-12-29T10:36:55;10.90;99.90
17172;DHT22;8701;50.150;8.756;2022-12-29T10:41:03;10.90;99.90
17172;DHT22;8701;50.150;8.756;2022-12-29T10:45:12;10.90;99.90
17172;DHT22;8701;50.150;8.756;2022-12-29T10:49:17;10.90;99.90
17172;DHT22;8701;50.150;8.756;2022-12-29T10:53:23;10.80;99.90
17172;DHT22;8701;50.150;8.756;2022-12-29T10:57:31;11.00;99.90
17172;DHT22;8701;50.150;8.756;2022-12-29T11:01:39;11.10;99.90
17172;DHT22;8701;50.150;8.756;2022-12-29T11:05:50;11.20;99.90
17172;DHT22;8701;50.150;8.756;2022-12-29T11:09:54;11.30;99.90
17172;DHT22;8701;50.150;8.756;2022-12-29T11:13:58;11.40;99.90
17172;DHT22;8701;50.150;8.756;2022-12-29T11:18:01;11.50;99.90
17172;DHT22;8701;50.150;8.756;2022-12-29T11:22:18;11.60;99.90
17172;DHT22;8701;50.150;8.756;2022-12-29T11:26:23;12.00;99.90
17172;DHT22;8701;50.150;8.756;2022-12-29T11:30:27;12.10;99.90
17172;DHT22;8701;50.150;8.756;2022-12-29T11:34:31;12.10;99.90
17172;DHT22;8701;50.150;8.756;2022-12-29T11:38:38;12.60;99.90
17172;DHT22;8701;50.150;8.756;2022-12-29T11:42:46;13.20;99.90
17172;DHT22;8701;50.150;8.756;2022-12-29T11:46:51;13.30;99.90
17172;DHT22;8701;50.150;8.756;2022-12-29T11:50:55;13.60;99.90
17172;DHT22;8701;50.150;8.756;2022-12-29T11:55:03;14.40;99.90
17172;DHT22;8701;50.150;8.756;2022-12-29T11:59:25;14.00;99.90
17172;DHT22;8701;50.150;8.756;2022-12-29T12:03:42;13.90;99.90
17172;DHT22;8701;50.150;8.756;2022-12-29T12:07:48;14.10;99.90
17172;DHT22;8701;50.150;8.756;2022-12-29T12:11:54;13.90;99.90
17172;DHT22;8701;50.150;8.756;2022-12-29T12:16:00;14.40;99.90
17172;DHT22;8701;50.150;8.756;2022-12-29T12:20:14;14.50;99.90
17172;DHT22;8701;50.150;8.756;2022-12-29T12:24:31;15.00;99.90
17172;DHT22;8701;50.150;8.756;2022-12-29T12:28:45;15.30;99.90
17172;DHT22;8701;50.150;8.756;2022-12-29T12:32:53;15.10;99.90
17172;DHT22;8701;50.150;8.756;2022-12-29T12:37:19;14.40;99.90
17172;DHT22;8701;50.150;8.756;2022-12-29T12:41:33;14.20;99.90
17172;DHT22;8701;50.150;8.756;2022-12-29T12:45:48;13.80;99.90
17172;DHT22;8701;50.150;8.756;2022-12-29T12:50:16;13.50;99.90
17172;DHT22;8701;50.150;8.756;2022-12-29T12:54:33;13.50;99.90
17172;DHT22;8701;50.150;8.756;2022-12-29T12:58:45;13.70;99.90
17172;DHT22;8701;50.150;8.756;2022-12-29T13:03:03;13.50;99.90
17172;DHT22;8701;50.150;8.756;2022-12-29T13:07:13;13.20;99.90
17172;DHT22;8701;50.150;8.756;2022-12-29T13:11:23;13.00;99.90
17172;DHT22;8701;50.150;8.756;2022-12-29T13:15:39;12.80;99.90
17172;DHT22;8701;50.150;8.756;2022-12-29T13:19:49;12.90;99.90
17172;DHT22;8701;50.150;8.756;2022-12-29T13:23:56;12.80;99.90
17172;DHT22;8701;50.150;8.756;2022-12-29T13:28:09;12.90;99.90
17172;DHT22;8701;50.150;8.756;2022-12-29T13:32:21;13.10;99.90
17172;DHT22;8701;50.150;8.756;2022-12-29T13:36:35;13.30;99.90
17172;DHT22;8701;50.150;8.756;2022-12-29T13:40:41;13.60;99.90
17172;DHT22;8701;50.150;8.756;2022-12-29T13:44:48;13.90;99.90
17172;DHT22;8701;50.150;8.756;2022-12-29T13:48:55;14.00;99.90
17172;DHT22;8701;50.150;8.756;2022-12-29T13:53:06;13.90;99.90
17172;DHT22;8701;50.150;8.756;2022-12-29T13:57:16;13.70;99.90
17172;DHT22;8701;50.150;8.756;2022-12-29T14:01:27;13.60;99.90
17172;DHT22;8701;50.150;8.756;2022-12-29T14:05:32;13.30;99.90
17172;DHT22;8701;50.150;8.756;2022-12-29T14:09:42;13.10;99.90
17172;DHT22;8701;50.150;8.756;2022-12-29T14:13:46;13.10;99.90
17172;DHT22;8701;50.150;8.756;2022-12-29T14:18:10;13.00;99.90
17172;DHT22;8701;50.150;8.756;2022-12-29T14:22:13;13.00;99.90
17172;DHT22;8701;50.150;8.756;2022-12-29T14:26:35;12.90;99.90
17172;DHT22;8701;50.150;8.756;2022-12-29T14:30:51;12.90;99.90
17172;DHT22;8701;50.150;8.756;2022-12-29T14:34:55;12.80;99.90
17172;DHT22;8701;50.150;8.756;2022-12-29T14:38:57;12.70;99.90
17172;DHT22;8701;50.150;8.756;2022-12-29T14:43:01;12.70;99.90
17172;DHT22;8701;50.150;8.756;2022-12-29T14:47:08;12.60;99.90
17172;DHT22;8701;50.150;8.756;2022-12-29T14:51:18;12.50;99.90
17172;DHT22;8701;50.150;8.756;2022-12-29T14:55:32;12.50;99.90
17172;DHT22;8701;50.150;8.756;2022-12-29T14:59:39;12.30;99.90
17172;DHT22;8701;50.150;8.756;2022-12-29T15:03:45;12.30;99.90
17172;DHT22;8701;50.150;8.756;2022-12-29T15:07:48;12.30;99.90
17172;DHT22;8701;50.150;8.756;2022-12-29T15:11:53;12.30;99.90
17172;DHT22;8701;50.150;8.756;2022-12-29T15:15:57;12.20;99.90
17172;DHT22;8701;50.150;8.756;2022-12-29T15:20:02;12.10;99.90
17172;DHT22;8701;50.150;8.756;2022-12-29T15:24:15;12.00;99.90
17172;DHT22;8701;50.150;8.756;2022-12-29T15:28:20;11.90;99.90
17172;DHT22;8701;50.150;8.756;2022-12-29T15:32:26;11.80;99.90
17172;DHT22;8701;50.150;8.756;2022-12-29T15:36:34;11.70;99.90
17172;DHT22;8701;50.150;8.756;2022-12-29T15:40:38;11.70;99.90
17172;DHT22;8701;50.150;8.756;2022-12-29T15:44:42;11.60;99.90
17172;DHT22;8701;50.150;8.756;2022-12-29T15:48:46;11.60;99.90
17172;DHT22;8701;50.150;8.756;2022-12-29T15:52:48;11.50;99.90
17172;DHT22;8701;50.150;8.756;2022-12-29T15:57:38;11.50;99.90
17172;DHT22;8701;50.150;8.756;2022-12-29T16:02:32;11.50;99.90
17172;DHT22;8701;50.150;8.756;2022-12-29T16:06:55;11.40;99.90
17172;DHT22;8701;50.150;8.756;2022-12-29T16:10:58;11.50;99.90
17172;DHT22;8701;50.150;8.756;2022-12-29T16:15:05;11.40;99.90
17172;DHT22;8701;50.150;8.756;2022-12-29T16:19:15;11.40;99.90
17172;DHT22;8701;50.150;8.756;2022-12-29T16:23:24;11.40;99.90
17172;DHT22;8701;50.150;8.756;2022-12-29T16:27:32;11.30;99.90
17172;DHT22;8701;50.150;8.756;2022-12-29T16:31:52;11.30;99.90
17172;DHT22;8701;50.150;8.756;2022-12-29T16:36:24;11.20;99.90
17172;DHT22;8701;50.150;8.756;2022-12-29T16:40:33;11.10;99.90
17172;DHT22;8701;50.150;8.756;2022-12-29T16:44:46;11.10;99.90
17172;DHT22;8701;50.150;8.756;2022-12-29T16:48:55;11.00;99.90
17172;DHT22;8701;50.150;8.756;2022-12-29T16:53:02;11.00;99.90
17172;DHT22;8701;50.150;8.756;2022-12-29T16:57:10;11.20;99.90
17172;DHT22;8701;50.150;8.756;2022-12-29T17:01:13;10.90;99.90
17172;DHT22;8701;50.150;8.756;2022-12-29T17:05:20;10.90;99.90
17172;DHT22;8701;50.150;8.756;2022-12-29T17:09:24;10.80;99.90
17172;DHT22;8701;50.150;8.756;2022-12-29T17:13:28;10.70;99.90
17172;DHT22;8701;50.150;8.756;2022-12-29T17:17:33;10.70;99.90
17172;DHT22;8701;50.150;8.756;2022-12-29T17:21:36;10.60;99.90
17172;DHT22;8701;50.150;8.756;2022-12-29T17:25:38;10.50;99.90
17172;DHT22;8701;50.150;8.756;2022-12-29T17:35:08;10.50;99.90
17172;DHT22;8701;50.150;8.756;2022-12-29T17:39:14;10.40;99.90
17172;DHT22;8701;50.150;8.756;2022-12-29T17:43:16;10.40;99.90
17172;DHT22;8701;50.150;8.756;2022-12-29T17:47:18;10.30;99.90
17172;DHT22;8701;50.150;8.756;2022-12-29T17:51:22;10.30;99.90
17172;DHT22;8701;50.150;8.756;2022-12-29T17:55:25;10.20;99.90
17172;DHT22;8701;50.150;8.756;2022-12-29T17:59:27;10.20;99.90
17172;DHT22;8701;50.150;8.756;2022-12-29T18:03:32;10.20;99.90
17172;DHT22;8701;50.150;8.756;2022-12-29T18:07:36;10.20;99.90
17172;DHT22;8701;50.150;8.756;2022-12-29T18:11:39;10.20;99.90
17172;DHT22;8701;50.150;8.756;2022-12-29T18:15:42;10.20;99.90
17172;DHT22;8701;50.150;8.756;2022-12-29T18:19:44;10.20;99.90
17172;DHT22;8701;50.150;8.756;2022-12-29T18:23:48;10.20;99.90
17172;DHT22;8701;50.150;8.756;2022-12-29T18:27:50;10.20;99.90
17172;DHT22;8701;50.150;8.756;2022-12-29T18:31:52;10.20;99.90
17172;DHT22;8701;50.150;8.756;2022-12-29T18:35:56;10.20;99.90
17172;DHT22;8701;50.150;8.756;2022-12-29T18:39:59;10.20;99.90
17172;DHT22;8701;50.150;8.756;2022-12-29T18:44:02;10.20;99.90
17172;DHT22;8701;50.150;8.756;2022-12-29T18:48:04;10.10;99.90
17172;DHT22;8701;50.150;8.756;2022-12-29T18:52:11;10.10;99.90
17172;DHT22;8701;50.150;8.756;2022-12-29T18:56:14;10.10;99.90
17172;DHT22;8701;50.150;8.756;2022-12-29T19:00:19;10.10;99.90
17172;DHT22;8701;50.150;8.756;2022-12-29T19:04:21;10.10;99.90
17172;DHT22;8701;50.150;8.756;2022-12-29T19:08:24;10.00;99.90
17172;DHT22;8701;50.150;8.756;2022-12-29T19:12:27;10.00;99.90
17172;DHT22;8701;50.150;8.756;2022-12-29T19:16:30;10.00;99.90
17172;DHT22;8701;50.150;8.756;2022-12-29T19:20:34;10.00;99.90
17172;DHT22;8701;50.150;8.756;2022-12-29T19:24:36;10.00;99.90
17172;DHT22;8701;50.150;8.756;2022-12-29T19:28:40;9.90;99.90
17172;DHT22;8701;50.150;8.756;2022-12-29T19:32:42;9.90;99.90
17172;DHT22;8701;50.150;8.756;2022-12-29T19:36:45;9.90;99.90
17172;DHT22;8701;50.150;8.756;2022-12-29T19:40:48;9.90;99.90
17172;DHT22;8701;50.150;8.756;2022-12-29T19:44:52;10.00;99.90
17172;DHT22;8701;50.150;8.756;2022-12-29T19:48:54;9.90;99.90
17172;DHT22;8701;50.150;8.756;2022-12-29T19:52:58;9.90;99.90
17172;DHT22;8701;50.150;8.756;2022-12-29T19:57:00;9.90;99.90
17172;DHT22;8701;50.150;8.756;2022-12-29T20:01:06;9.90;99.90
17172;DHT22;8701;50.150;8.756;2022-12-29T20:05:09;9.90;99.90
17172;DHT22;8701;50.150;8.756;2022-12-29T20:09:12;9.90;99.90
17172;DHT22;8701;50.150;8.756;2022-12-29T20:13:14;9.90;99.90
17172;DHT22;8701;50.150;8.756;2022-12-29T20:17:24;9.90;99.90
17172;DHT22;8701;50.150;8.756;2022-12-29T20:21:26;9.90;99.90
17172;DHT22;8701;50.150;8.756;2022-12-29T20:25:28;9.90;99.90
17172;DHT22;8701;50.150;8.756;2022-12-29T20:29:31;9.90;99.90
17172;DHT22;8701;50.150;8.756;2022-12-29T20:33:40;9.90;99.90
17172;DHT22;8701;50.150;8.756;2022-12-29T20:37:42;9.90;99.90
17172;DHT22;8701;50.150;8.756;2022-12-29T20:41:45;9.90;99.90
17172;DHT22;8701;50.150;8.756;2022-12-29T20:45:48;9.90;99.90
17172;DHT22;8701;50.150;8.756;2022-12-29T20:49:52;10.00;99.90
17172;DHT22;8701;50.150;8.756;2022-12-29T20:53:54;9.90;99.90
17172;DHT22;8701;50.150;8.756;2022-12-29T20:57:57;9.90;99.90
17172;DHT22;8701;50.150;8.756;2022-12-29T21:01:59;9.90;99.90
17172;DHT22;8701;50.150;8.756;2022-12-29T21:06:03;9.90;99.90
17172;DHT22;8701;50.150;8.756;2022-12-29T21:10:06;9.90;99.90
17172;DHT22;8701;50.150;8.756;2022-12-29T21:14:08;9.90;99.90
17172;DHT22;8701;50.150;8.756;2022-12-29T21:18:10;9.90;99.90
17172;DHT22;8701;50.150;8.756;2022-12-29T21:22:14;9.90;99.90
17172;DHT22;8701;50.150;8.756;2022-12-29T21:26:20;9.80;99.90
17172;DHT22;8701;50.150;8.756;2022-12-29T21:30:22;9.80;99.90
17172;DHT22;8701;50.150;8.756;2022-12-29T21:34:24;9.80;99.90
17172;DHT22;8701;50.150;8.756;2022-12-29T21:38:28;9.80;99.90
17172;DHT22;8701;50.150;8.756;2022-12-29T21:42:31;9.80;99.90
17172;DHT22;8701;50.150;8.756;2022-12-29T21:46:36;9.80;99.90
17172;DHT22;8701;50.150;8.756;2022-12-29T21:50:39;9.80;99.90
17172;DHT22;8701;50.150;8.756;2022-12-29T21:55:04;9.70;99.90
17172;DHT22;8701;50.150;8.756;2022-12-29T21:59:09;9.60;99.90
17172;DHT22;8701;50.150;8.756;2022-12-29T22:03:29;9.60;99.90
17172;DHT22;8701;50.150;8.756;2022-12-29T22:07:49;9.50;99.90
17172;DHT22;8701;50.150;8.756;2022-12-29T22:12:10;9.50;99.90
17172;DHT22;8701;50.150;8.756;2022-12-29T22:16:30;9.50;99.90
17172;DHT22;8701;50.150;8.756;2022-12-29T22:20:34;9.50;99.90
17172;DHT22;8701;50.150;8.756;2022-12-29T22:24:36;9.40;99.90
17172;DHT22;8701;50.150;8.756;2022-12-29T22:28:42;9.40;99.90
17172;DHT22;8701;50.150;8.756;2022-12-29T22:32:46;9.30;99.90
17172;DHT22;8701;50.150;8.756;2022-12-29T22:36:48;9.20;99.90
17172;DHT22;8701;50.150;8.756;2022-12-29T22:40:50;9.20;99.90
17172;DHT22;8701;50.150;8.756;2022-12-29T22:44:54;9.20;99.90
17172;DHT22;8701;50.150;8.756;2022-12-29T22:48:56;9.20;99.90
17172;DHT22;8701;50.150;8.756;2022-12-29T22:52:58;9.10;99.90
17172;DHT22;8701;50.150;8.756;2022-12-29T22:57:00;9.10;99.90
17172;DHT22;8701;50.150;8.756;2022-12-29T23:01:04;9.10;99.90
17172;DHT22;8701;50.150;8.756;2022-12-29T23:05:06;9.10;99.90
17172;DHT22;8701;50.150;8.756;2022-12-29T23:09:09;9.00;99.90
17172;DHT22;8701;50.150;8.756;2022-12-29T23:13:14;9.00;99.90
17172;DHT22;8701;50.150;8.756;2022-12-29T23:17:18;9.00;99.90
17172;DHT22;8701;50.150;8.756;2022-12-29T23:21:20;8.90;99.90
17172;DHT22;8701;50.150;8.756;2022-12-29T23:25:22;8.80;99.90
17172;DHT22;8701;50.150;8.756;2022-12-29T23:29:24;8.70;99.90
17172;DHT22;8701;50.150;8.756;2022-12-29T23:33:28;8.60;99.90
17172;DHT22;8701;50.150;8.756;2022-12-29T23:37:30;8.50;99.90
17172;DHT22;8701;50.150;8.756;2022-12-29T23:41:32;8.50;99.90
17172;DHT22;8701;50.150;8.756;2022-12-29T23:45:35;8.50;99.90
17172;DHT22;8701;50.150;8.756;2022-12-29T23:49:39;8.50;99.90
17172;DHT22;8701;50.150;8.756;2022-12-29T23:53:42;8.50;99.90
17172;DHT22;8701;50.150;8.756;2022-12-29T23:57:45;8.50;99.90
